createdAt,value
2023-04-26T00:00:21.239Z,639.00
2023-04-26T00:01:21.230Z,641.00
2023-04-26T00:02:21.406Z,645.00
2023-04-26T00:03:21.283Z,651.00
2023-04-26T00:04:21.350Z,645.00
2023-04-26T00:05:21.401Z,646.00
2023-04-26T00:06:21.245Z,652.00
2023-04-26T00:07:21.282Z,650.00
2023-04-26T00:08:21.330Z,649.00
2023-04-26T00:09:21.402Z,640.00
2023-04-26T00:10:21.457Z,647.00
2023-04-26T00:11:21.528Z,640.00
2023-04-26T00:12:21.595Z,638.00
2023-04-26T00:13:21.686Z,644.00
2023-04-26T00:14:21.744Z,645.00
2023-04-26T00:15:21.755Z,638.00
2023-04-26T00:16:21.881Z,631.00
2023-04-26T00:17:21.890Z,634.00
2023-04-26T00:18:22.146Z,642.00
2023-04-26T00:19:22.023Z,647.00
2023-04-26T00:20:22.093Z,644.00
2023-04-26T00:21:22.134Z,647.00
2023-04-26T00:22:22.168Z,649.00
2023-04-26T00:23:22.197Z,647.00
2023-04-26T00:24:22.210Z,649.00
2023-04-26T00:25:22.248Z,649.00
2023-04-26T00:26:22.282Z,648.00
2023-04-26T00:28:41.305Z,500.00
2023-04-26T00:29:41.295Z,500.00
2023-04-26T00:30:41.282Z,500.00
2023-04-26T00:31:41.318Z,500.00
2023-04-26T00:32:41.309Z,500.00
2023-04-26T00:33:41.294Z,500.00
2023-04-26T00:34:41.312Z,500.00
2023-04-26T00:35:41.286Z,504.00
2023-04-26T00:36:41.266Z,499.00
2023-04-26T00:37:41.269Z,500.00
2023-04-26T00:38:41.262Z,496.00
2023-04-26T00:39:41.257Z,501.00
2023-04-26T00:40:41.259Z,502.00
2023-04-26T00:41:41.262Z,496.00
2023-04-26T00:42:41.273Z,504.00
2023-04-26T00:43:41.277Z,507.00
2023-04-26T00:44:41.241Z,507.00
2023-04-26T00:45:41.293Z,513.00
2023-04-26T00:46:41.339Z,506.00
2023-04-26T00:47:41.501Z,501.00
2023-04-26T00:48:41.500Z,500.00
2023-04-26T00:49:41.531Z,505.00
2023-04-26T00:50:41.591Z,515.00
2023-04-26T00:51:41.650Z,507.00
2023-04-26T00:52:41.721Z,514.00
2023-04-26T00:53:41.788Z,517.00
2023-04-26T00:54:41.854Z,506.00
2023-04-26T00:55:41.995Z,508.00
2023-04-26T00:56:41.980Z,502.00
2023-04-26T00:57:42.058Z,511.00
2023-04-26T00:58:42.105Z,507.00
2023-04-26T00:59:42.174Z,510.00
2023-04-26T01:00:42.267Z,507.00
2023-04-26T01:01:42.453Z,509.00
2023-04-26T01:02:42.554Z,509.00
2023-04-26T01:03:42.536Z,515.00
2023-04-26T01:04:42.464Z,518.00
2023-04-26T01:05:42.528Z,518.00
2023-04-26T01:06:42.595Z,515.00
2023-04-26T01:07:42.674Z,515.00
2023-04-26T01:08:42.729Z,519.00
2023-04-26T01:09:42.781Z,507.00
2023-04-26T01:10:42.897Z,504.00
2023-04-26T01:11:42.897Z,508.00
2023-04-26T01:12:42.959Z,512.00
2023-04-26T01:13:42.982Z,512.00
2023-04-26T01:14:42.927Z,513.00
2023-04-26T01:15:42.931Z,512.00
2023-04-26T01:16:42.926Z,511.00
2023-04-26T01:17:42.946Z,517.00
2023-04-26T01:18:42.899Z,513.00
2023-04-26T01:19:42.894Z,513.00
2023-04-26T01:20:42.892Z,513.00
2023-04-26T01:21:42.875Z,512.00
2023-04-26T01:22:42.869Z,509.00
2023-04-26T01:23:42.870Z,509.00
2023-04-26T01:24:42.842Z,511.00
2023-04-26T01:25:42.839Z,517.00
2023-04-26T01:26:42.872Z,503.00
2023-04-26T01:27:42.939Z,505.00
2023-04-26T01:28:42.982Z,511.00
2023-04-26T01:29:43.046Z,512.00
2023-04-26T01:30:43.132Z,500.00
2023-04-26T01:31:43.173Z,503.00
2023-04-26T01:32:43.294Z,509.00
2023-04-26T01:33:43.317Z,516.00
2023-04-26T01:34:43.376Z,516.00
2023-04-26T01:35:43.448Z,521.00
2023-04-26T01:36:43.472Z,516.00
2023-04-26T01:37:43.536Z,510.00
2023-04-26T01:38:43.617Z,517.00
2023-04-26T01:39:43.663Z,518.00
2023-04-26T01:40:43.715Z,506.00
2023-04-26T01:41:43.779Z,512.00
2023-04-26T01:42:43.841Z,514.00
2023-04-26T01:43:43.910Z,507.00
2023-04-26T01:44:43.961Z,510.00
2023-04-26T01:45:44.023Z,508.00
2023-04-26T01:46:44.208Z,515.00
2023-04-26T01:47:44.162Z,518.00
2023-04-26T01:48:44.141Z,518.00
2023-04-26T01:49:44.201Z,519.00
2023-04-26T01:50:44.157Z,512.00
2023-04-26T01:51:44.106Z,520.00
2023-04-26T01:52:44.165Z,511.00
2023-04-26T01:53:44.144Z,509.00
2023-04-26T01:54:44.109Z,516.00
2023-04-26T01:55:44.111Z,521.00
2023-04-26T01:56:44.170Z,519.00
2023-04-26T01:57:44.229Z,516.00
2023-04-26T01:58:44.282Z,511.00
2023-04-26T01:59:44.357Z,509.00
2023-04-26T02:00:44.404Z,514.00
2023-04-26T02:01:44.488Z,513.00
2023-04-26T02:02:44.586Z,513.00
2023-04-26T02:03:44.689Z,511.00
2023-04-26T02:04:44.708Z,524.00
2023-04-26T02:05:44.728Z,520.00
2023-04-26T02:06:44.781Z,512.00
2023-04-26T02:07:44.845Z,505.00
2023-04-26T02:08:44.918Z,509.00
2023-04-26T02:09:44.986Z,515.00
2023-04-26T02:10:45.057Z,514.00
2023-04-26T02:11:45.138Z,518.00
2023-04-26T02:12:45.179Z,517.00
2023-04-26T02:13:45.267Z,519.00
2023-04-26T02:14:45.305Z,520.00
2023-04-26T02:15:45.401Z,509.00
2023-04-26T02:16:45.447Z,503.00
2023-04-26T02:17:45.510Z,503.00
2023-04-26T02:18:45.468Z,504.00
2023-04-26T02:19:45.438Z,504.00
2023-04-26T02:20:45.424Z,512.00
2023-04-26T02:21:45.434Z,505.00
2023-04-26T02:22:45.425Z,511.00
2023-04-26T02:23:45.425Z,507.00
2023-04-26T02:24:45.427Z,517.00
2023-04-26T02:25:45.499Z,521.00
2023-04-26T02:26:45.525Z,523.00
2023-04-26T02:27:45.603Z,523.00
2023-04-26T02:28:45.636Z,518.00
2023-04-26T02:29:45.691Z,522.00
2023-04-26T02:30:45.777Z,507.00
2023-04-26T02:31:45.864Z,516.00
2023-04-26T02:32:45.869Z,525.00
2023-04-26T02:33:45.932Z,515.00
2023-04-26T02:34:45.960Z,513.00
2023-04-26T02:35:45.992Z,516.00
2023-04-26T02:36:46.033Z,515.00
2023-04-26T02:37:46.047Z,508.00
2023-04-26T02:38:46.087Z,515.00
2023-04-26T02:39:46.146Z,512.00
2023-04-26T02:40:46.178Z,509.00
2023-04-26T02:41:46.208Z,512.00
2023-04-26T02:42:46.252Z,508.00
2023-04-26T02:43:46.321Z,512.00
2023-04-26T02:44:46.375Z,519.00
2023-04-26T02:45:46.438Z,518.00
2023-04-26T02:46:46.519Z,518.00
2023-04-26T02:47:46.612Z,517.00
2023-04-26T02:48:46.629Z,522.00
2023-04-26T02:49:46.702Z,514.00
2023-04-26T02:50:46.744Z,517.00
2023-04-26T02:51:46.768Z,526.00
2023-04-26T02:52:46.777Z,516.00
2023-04-26T02:53:46.850Z,519.00
2023-04-26T02:54:46.883Z,519.00
2023-04-26T02:55:46.953Z,520.00
2023-04-26T02:56:46.981Z,506.00
2023-04-26T02:57:47.021Z,511.00
2023-04-26T02:58:47.040Z,507.00
2023-04-26T02:59:47.091Z,502.00
2023-04-26T03:00:47.185Z,505.00
2023-04-26T03:01:47.189Z,513.00
2023-04-26T03:02:47.354Z,509.00
2023-04-26T03:03:47.324Z,524.00
2023-04-26T03:04:47.297Z,516.00
2023-04-26T03:05:47.355Z,513.00
2023-04-26T03:06:47.436Z,509.00
2023-04-26T03:07:47.476Z,516.00
2023-04-26T03:08:47.553Z,510.00
2023-04-26T03:09:47.596Z,512.00
2023-04-26T03:10:47.648Z,515.00
2023-04-26T03:11:49.595Z,517.00
2023-04-26T03:12:47.757Z,517.00
2023-04-26T03:13:47.821Z,513.00
2023-04-26T03:14:47.884Z,516.00
2023-04-26T03:15:47.957Z,522.00
2023-04-26T03:16:48.049Z,520.00
2023-04-26T03:17:48.124Z,522.00
2023-04-26T03:18:48.080Z,525.00
2023-04-26T03:19:48.163Z,526.00
2023-04-26T03:20:48.154Z,523.00
2023-04-26T03:21:48.152Z,528.00
2023-04-26T03:22:48.180Z,517.00
2023-04-26T03:23:48.197Z,519.00
2023-04-26T03:24:48.230Z,506.00
2023-04-26T03:25:48.276Z,513.00
2023-04-26T03:26:48.336Z,517.00
2023-04-26T03:27:48.352Z,522.00
2023-04-26T03:28:48.387Z,508.00
2023-04-26T03:29:48.439Z,519.00
2023-04-26T03:30:48.490Z,513.00
2023-04-26T03:31:48.600Z,507.00
2023-04-26T03:32:48.732Z,510.00
2023-04-26T03:33:48.688Z,518.00
2023-04-26T03:34:48.762Z,518.00
2023-04-26T03:35:48.688Z,519.00
2023-04-26T03:36:48.722Z,521.00
2023-04-26T03:37:48.685Z,519.00
2023-04-26T03:38:48.682Z,524.00
2023-04-26T03:39:48.683Z,516.00
2023-04-26T03:40:48.675Z,522.00
2023-04-26T03:41:48.687Z,528.00
2023-04-26T03:42:48.697Z,527.00
2023-04-26T03:43:48.725Z,528.00
2023-04-26T03:44:48.888Z,528.00
2023-04-26T03:45:49.161Z,529.00
2023-04-26T03:46:48.966Z,524.00
2023-04-26T03:47:49.021Z,528.00
2023-04-26T03:48:49.131Z,531.00
2023-04-26T03:49:49.109Z,521.00
2023-04-26T03:50:49.159Z,528.00
2023-04-26T03:51:49.168Z,522.00
2023-04-26T03:52:49.159Z,514.00
2023-04-26T03:53:49.172Z,507.00
2023-04-26T03:54:49.154Z,507.00
2023-04-26T03:55:49.144Z,515.00
2023-04-26T03:56:49.167Z,514.00
2023-04-26T03:57:49.132Z,505.00
2023-04-26T03:58:49.164Z,507.00
2023-04-26T03:59:49.131Z,506.00
2023-04-26T04:00:49.131Z,504.00
2023-04-26T04:01:49.158Z,514.00
2023-04-26T04:02:49.338Z,519.00
2023-04-26T04:03:49.364Z,519.00
2023-04-26T04:04:49.521Z,518.00
2023-04-26T04:05:49.387Z,517.00
2023-04-26T04:06:49.455Z,513.00
2023-04-26T04:07:49.520Z,519.00
2023-04-26T04:08:49.851Z,519.00
2023-04-26T04:09:49.669Z,517.00
2023-04-26T04:10:49.717Z,515.00
2023-04-26T04:11:49.752Z,512.00
2023-04-26T04:12:49.812Z,522.00
2023-04-26T04:13:49.863Z,521.00
2023-04-26T04:14:49.910Z,520.00
2023-04-26T04:15:50.003Z,518.00
2023-04-26T04:16:50.044Z,515.00
2023-04-26T04:17:50.115Z,519.00
2023-04-26T04:18:50.459Z,525.00
2023-04-26T04:19:50.221Z,523.00
2023-04-26T04:20:50.208Z,523.00
2023-04-26T04:21:50.203Z,524.00
2023-04-26T04:22:50.203Z,523.00
2023-04-26T04:23:50.292Z,523.00
2023-04-26T04:24:50.180Z,527.00
2023-04-26T04:25:50.214Z,523.00
2023-04-26T04:26:50.186Z,525.00
2023-04-26T04:27:50.280Z,524.00
2023-04-26T04:28:50.220Z,526.00
2023-04-26T04:29:50.164Z,522.00
2023-04-26T04:30:50.186Z,526.00
2023-04-26T04:31:50.179Z,523.00
2023-04-26T04:32:50.233Z,509.00
2023-04-26T04:33:50.183Z,508.00
2023-04-26T04:34:50.182Z,509.00
2023-04-26T04:35:50.168Z,511.00
2023-04-26T04:36:50.165Z,509.00
2023-04-26T04:37:50.222Z,511.00
2023-04-26T04:38:50.480Z,514.00
2023-04-26T04:39:50.162Z,518.00
2023-04-26T04:40:50.177Z,517.00
2023-04-26T04:41:50.164Z,511.00
2023-04-26T04:42:50.148Z,514.00
2023-04-26T04:43:50.142Z,513.00
2023-04-26T04:44:50.150Z,513.00
2023-04-26T04:45:50.147Z,513.00
2023-04-26T04:46:50.146Z,514.00
2023-04-26T04:47:50.218Z,516.00
2023-04-26T04:48:50.270Z,519.00
2023-04-26T04:49:50.106Z,523.00
2023-04-26T04:50:50.111Z,519.00
2023-04-26T04:51:50.103Z,521.00
2023-04-26T04:52:50.092Z,525.00
2023-04-26T04:53:50.087Z,525.00
2023-04-26T04:54:50.095Z,523.00
2023-04-26T04:55:50.089Z,522.00
2023-04-26T04:56:50.081Z,524.00
2023-04-26T04:57:50.132Z,525.00
2023-04-26T04:58:50.342Z,529.00
2023-04-26T04:59:50.249Z,527.00
2023-04-26T05:00:50.245Z,527.00
2023-04-26T05:01:50.272Z,528.00
2023-04-26T05:02:50.324Z,526.00
2023-04-26T05:03:50.353Z,524.00
2023-04-26T05:04:50.436Z,521.00
2023-04-26T05:05:50.215Z,516.00
2023-04-26T05:06:50.186Z,523.00
2023-04-26T05:07:50.219Z,515.00
2023-04-26T05:08:50.160Z,520.00
2023-04-26T05:09:50.152Z,521.00
2023-04-26T05:10:50.132Z,519.00
2023-04-26T05:11:50.129Z,512.00
2023-04-26T05:12:50.127Z,515.00
2023-04-26T05:13:52.686Z,512.00
2023-04-26T05:14:50.133Z,512.00
2023-04-26T05:15:50.121Z,514.00
2023-04-26T05:16:50.205Z,513.00
2023-04-26T05:17:50.129Z,513.00
2023-04-26T05:18:50.105Z,509.00
2023-04-26T05:19:50.088Z,512.00
2023-04-26T05:20:50.085Z,519.00
2023-04-26T05:21:50.085Z,512.00
2023-04-26T05:22:50.056Z,517.00
2023-04-26T05:23:50.303Z,518.00
2023-04-26T05:24:50.094Z,518.00
2023-04-26T05:25:50.155Z,515.00
2023-04-26T05:26:50.224Z,518.00
2023-04-26T05:27:50.288Z,518.00
2023-04-26T05:28:50.355Z,521.00
2023-04-26T05:29:50.399Z,518.00
2023-04-26T05:30:50.457Z,515.00
2023-04-26T05:31:50.503Z,516.00
2023-04-26T05:32:50.542Z,517.00
2023-04-26T05:33:50.559Z,520.00
2023-04-26T05:34:50.464Z,533.00
2023-04-26T05:35:50.438Z,566.00
2023-04-26T05:36:50.489Z,592.00
2023-04-26T05:37:50.418Z,617.00
2023-04-26T05:38:50.409Z,618.00
2023-04-26T05:39:50.408Z,621.00
2023-04-26T05:40:50.407Z,631.00
2023-04-26T05:41:50.392Z,654.00
2023-04-26T05:42:50.387Z,733.00
2023-04-26T05:43:50.507Z,805.00
2023-04-26T05:44:50.402Z,877.00
2023-04-26T05:45:50.433Z,966.00
2023-04-26T05:46:50.357Z,1036.00
2023-04-26T05:47:50.509Z,1039.00
2023-04-26T05:48:50.568Z,1054.00
2023-04-26T05:49:50.398Z,1099.00
2023-04-26T05:50:50.430Z,1166.00
2023-04-26T05:51:50.290Z,1296.00
2023-04-26T05:52:50.536Z,1327.00
2023-04-26T05:53:50.488Z,1377.00
2023-04-26T05:54:50.298Z,1396.00
2023-04-26T05:55:50.287Z,1398.00
2023-04-26T05:56:50.243Z,1409.00
2023-04-26T05:57:50.275Z,1429.00
2023-04-26T05:58:50.194Z,1462.00
2023-04-26T05:59:50.339Z,1518.00
2023-04-26T06:00:50.169Z,1579.00
2023-04-26T06:01:50.196Z,1581.00
2023-04-26T06:02:50.201Z,1594.00
2023-04-26T06:03:50.372Z,1624.00
2023-04-26T06:04:50.310Z,1695.00
2023-04-26T06:05:50.214Z,1802.00
2023-04-26T06:06:50.074Z,1893.00
2023-04-26T06:07:50.077Z,1918.00
2023-04-26T06:08:50.101Z,1974.00
2023-04-26T06:09:50.114Z,2032.00
2023-04-26T06:10:50.033Z,2051.00
2023-04-26T06:11:49.981Z,2069.00
2023-04-26T06:12:49.979Z,2094.00
2023-04-26T06:13:49.994Z,2107.00
2023-04-26T06:14:50.105Z,2172.00
2023-04-26T06:15:49.918Z,2196.00
2023-04-26T06:16:49.937Z,2215.00
2023-04-26T06:17:49.948Z,2260.00
2023-04-26T06:18:50.074Z,2298.00
2023-04-26T06:19:49.921Z,2327.00
2023-04-26T06:20:49.911Z,2368.00
2023-04-26T06:21:49.903Z,2399.00
2023-04-26T06:22:49.951Z,2403.00
2023-04-26T06:23:50.003Z,2404.00
2023-04-26T06:24:49.897Z,2407.00
2023-04-26T06:25:49.903Z,2413.00
2023-04-26T06:26:49.841Z,2412.00
2023-04-26T06:27:49.950Z,2414.00
2023-04-26T06:28:49.795Z,2438.00
2023-04-26T06:29:49.783Z,2476.00
2023-04-26T06:30:49.779Z,2532.00
2023-04-26T06:31:49.788Z,2564.00
2023-04-26T06:32:49.711Z,2575.00
2023-04-26T06:33:49.885Z,2554.00
2023-04-26T06:34:49.662Z,2564.00
2023-04-26T06:35:49.613Z,2511.00
2023-04-26T06:36:49.595Z,2515.00
2023-04-26T06:37:49.581Z,2920.00
2023-04-26T06:38:49.610Z,3079.00
2023-04-26T06:39:49.525Z,3034.00
2023-04-26T06:40:49.500Z,2987.00
2023-04-26T06:41:50.992Z,2961.00
2023-04-26T06:42:49.458Z,2925.00
2023-04-26T06:43:49.415Z,2814.00
2023-04-26T06:44:49.368Z,2768.00
2023-04-26T06:45:49.415Z,2718.00
2023-04-26T06:46:49.326Z,2655.00
2023-04-26T06:47:49.337Z,2559.00
2023-04-26T06:48:49.373Z,2490.00
2023-04-26T06:49:49.394Z,2423.00
2023-04-26T06:50:49.207Z,2395.00
2023-04-26T06:51:49.177Z,2446.00
2023-04-26T06:52:49.112Z,2489.00
2023-04-26T06:53:49.251Z,2483.00
2023-04-26T06:54:56.526Z,2508.00
2023-04-26T06:55:50.001Z,2508.00
2023-04-26T06:56:49.139Z,2512.00
2023-04-26T06:57:48.899Z,2530.00
2023-04-26T06:58:49.618Z,2561.00
2023-04-26T06:59:48.824Z,2616.00
2023-04-26T07:00:48.809Z,2614.00
2023-04-26T07:01:49.088Z,2581.00
2023-04-26T07:02:48.845Z,2604.00
2023-04-26T07:03:48.748Z,2604.00
2023-04-26T07:04:48.929Z,2572.00
2023-04-26T07:05:48.693Z,2603.00
2023-04-26T07:06:48.711Z,2595.00
2023-04-26T07:07:48.830Z,2610.00
2023-04-26T07:08:48.799Z,2592.00
2023-04-26T07:09:48.747Z,2587.00
2023-04-26T07:10:48.780Z,2566.00
2023-04-26T07:11:48.920Z,2570.00
2023-04-26T07:12:48.844Z,2510.00
2023-04-26T07:13:48.941Z,2523.00
2023-04-26T07:14:49.080Z,2523.00
2023-04-26T07:15:48.890Z,2504.00
2023-04-26T07:16:49.138Z,2524.00
2023-04-26T07:17:48.896Z,2503.00
2023-04-26T07:18:48.866Z,2507.00
2023-04-26T07:19:48.835Z,2479.00
2023-04-26T07:20:48.860Z,2513.00
2023-04-26T07:21:48.976Z,2537.00
2023-04-26T07:22:48.913Z,2575.00
2023-04-26T07:23:48.924Z,2578.00
2023-04-26T07:24:48.950Z,2594.00
2023-04-26T07:25:48.981Z,2611.00
2023-04-26T07:26:48.972Z,2630.00
2023-04-26T07:27:49.325Z,2657.00
2023-04-26T07:28:49.046Z,2630.00
2023-04-26T07:29:49.137Z,2610.00
2023-04-26T07:30:49.143Z,2664.00
2023-04-26T07:31:49.091Z,2665.00
2023-04-26T07:32:49.197Z,2669.00
2023-04-26T07:33:49.046Z,2674.00
2023-04-26T07:34:48.942Z,2697.00
2023-04-26T07:35:48.984Z,2624.00
2023-04-26T07:36:49.128Z,2623.00
2023-04-26T07:37:48.884Z,2613.00
2023-04-26T07:38:48.817Z,2690.00
2023-04-26T07:39:49.119Z,2732.00
2023-04-26T07:40:48.975Z,2755.00
2023-04-26T07:41:48.801Z,2713.00
2023-04-26T07:42:48.835Z,2679.00
2023-04-26T07:43:48.895Z,2568.00
2023-04-26T07:44:49.053Z,2532.00
2023-04-26T07:45:49.080Z,2447.00
2023-04-26T07:46:49.048Z,2445.00
2023-04-26T07:47:49.089Z,2414.00
2023-04-26T07:48:49.024Z,2372.00
2023-04-26T07:49:49.173Z,2337.00
2023-04-26T07:50:49.206Z,2350.00
2023-04-26T07:51:49.196Z,2408.00
2023-04-26T07:52:49.109Z,2389.00
2023-04-26T07:53:49.176Z,2425.00
2023-04-26T07:54:49.198Z,2482.00
2023-04-26T07:55:49.226Z,2412.00
2023-04-26T07:56:49.202Z,2385.00
2023-04-26T07:57:49.235Z,2373.00
2023-04-26T07:58:49.236Z,2431.00
2023-04-26T07:59:49.260Z,2495.00
2023-04-26T08:00:49.299Z,2493.00
2023-04-26T08:01:49.508Z,2508.00
2023-04-26T08:02:49.459Z,2487.00
2023-04-26T08:03:49.629Z,2456.00
2023-04-26T08:04:49.625Z,2494.00
2023-04-26T08:05:49.567Z,2481.00
2023-04-26T08:06:50.141Z,2482.00
2023-04-26T08:07:49.489Z,2520.00
2023-04-26T08:08:49.459Z,2482.00
2023-04-26T08:09:49.477Z,2495.00
2023-04-26T08:10:49.441Z,2498.00
2023-04-26T08:11:49.412Z,2512.00
2023-04-26T08:12:49.334Z,2545.00
2023-04-26T08:13:49.303Z,2598.00
2023-04-26T08:14:49.261Z,2627.00
2023-04-26T08:15:49.229Z,2581.00
2023-04-26T08:16:49.195Z,2598.00
2023-04-26T08:17:49.256Z,2557.00
2023-04-26T08:18:49.146Z,2474.00
2023-04-26T08:19:49.164Z,2525.00
2023-04-26T08:20:49.234Z,2515.00
2023-04-26T08:21:49.244Z,2475.00
2023-04-26T08:22:49.214Z,2518.00
2023-04-26T08:23:49.262Z,2567.00
2023-04-26T08:24:49.257Z,2573.00
2023-04-26T08:25:49.274Z,2507.00
2023-04-26T08:26:49.284Z,2530.00
2023-04-26T08:27:49.318Z,2614.00
2023-04-26T08:28:49.365Z,2594.00
2023-04-26T08:29:49.354Z,2592.00
2023-04-26T08:30:49.447Z,2655.00
2023-04-26T08:31:49.390Z,2647.00
2023-04-26T08:32:49.506Z,2424.00
2023-04-26T08:33:49.328Z,2182.00
2023-04-26T08:34:49.266Z,1822.00
2023-04-26T08:35:49.241Z,1583.00
2023-04-26T08:36:49.192Z,1434.00
2023-04-26T08:37:49.163Z,1307.00
2023-04-26T08:38:49.173Z,1220.00
2023-04-26T08:39:49.149Z,1116.00
2023-04-26T08:40:49.245Z,998.00
2023-04-26T08:41:49.065Z,906.00
2023-04-26T08:42:49.133Z,783.00
2023-04-26T08:43:49.070Z,636.00
2023-04-26T08:44:49.222Z,603.00
2023-04-26T08:45:49.225Z,563.00
2023-04-26T08:46:49.249Z,550.00
2023-04-26T08:47:49.032Z,491.00
2023-04-26T08:48:48.914Z,441.00
2023-04-26T08:49:49.029Z,468.00
2023-04-26T08:50:48.906Z,495.00
2023-04-26T08:51:48.776Z,496.00
2023-04-26T08:52:48.768Z,495.00
2023-04-26T08:53:49.255Z,502.00
2023-04-26T08:54:48.979Z,500.00
2023-04-26T08:55:49.177Z,500.00
2023-04-26T08:56:48.784Z,503.00
2023-04-26T08:57:48.910Z,497.00
2023-04-26T08:58:48.880Z,507.00
2023-04-26T08:59:49.046Z,500.00
2023-04-26T09:00:49.147Z,504.00
2023-04-26T09:01:49.183Z,499.00
2023-04-26T09:02:49.278Z,500.00
2023-04-26T09:03:49.248Z,499.00
2023-04-26T09:04:49.187Z,499.00
2023-04-26T09:05:49.085Z,499.00
2023-04-26T09:06:48.889Z,500.00
2023-04-26T09:07:49.116Z,477.00
2023-04-26T09:08:48.842Z,477.00
2023-04-26T09:09:48.864Z,498.00
2023-04-26T09:10:48.862Z,504.00
2023-04-26T09:11:48.916Z,511.00
2023-04-26T09:12:49.256Z,513.00
2023-04-26T09:13:48.921Z,532.00
2023-04-26T09:14:49.144Z,540.00
2023-04-26T09:15:49.309Z,543.00
2023-04-26T09:16:49.116Z,536.00
2023-04-26T09:17:49.298Z,549.00
2023-04-26T09:18:49.184Z,548.00
2023-04-26T09:19:49.163Z,559.00
2023-04-26T09:20:49.094Z,550.00
2023-04-26T09:21:49.259Z,560.00
2023-04-26T09:22:49.145Z,560.00
2023-04-26T09:23:49.192Z,552.00
2023-04-26T09:24:49.176Z,555.00
2023-04-26T09:25:49.589Z,556.00
2023-04-26T09:26:49.248Z,574.00
2023-04-26T09:27:49.260Z,572.00
2023-04-26T09:28:49.276Z,587.00
2023-04-26T09:29:49.297Z,587.00
2023-04-26T09:30:49.335Z,594.00
2023-04-26T09:31:49.961Z,603.00
2023-04-26T09:32:49.414Z,600.00
2023-04-26T09:33:49.404Z,602.00
2023-04-26T09:34:49.472Z,616.00
2023-04-26T09:35:49.382Z,606.00
2023-04-26T09:36:49.352Z,601.00
2023-04-26T09:37:58.303Z,600.00
2023-04-26T09:38:50.463Z,611.00
2023-04-26T09:39:49.214Z,603.00
2023-04-26T09:40:49.215Z,614.00
2023-04-26T09:41:49.186Z,637.00
2023-04-26T09:42:50.065Z,668.00
2023-04-26T09:43:49.117Z,729.00
2023-04-26T09:44:49.139Z,792.00
2023-04-26T09:45:49.157Z,884.00
2023-04-26T09:46:48.904Z,901.00
2023-04-26T09:47:48.987Z,905.00
2023-04-26T09:48:48.893Z,866.00
2023-04-26T09:49:48.831Z,795.00
2023-04-26T09:50:49.661Z,682.00
2023-04-26T09:51:48.742Z,622.00
2023-04-26T09:52:48.619Z,629.00
2023-04-26T09:53:48.654Z,638.00
2023-04-26T09:54:48.512Z,651.00
2023-04-26T09:55:48.519Z,647.00
2023-04-26T09:56:48.527Z,649.00
2023-04-26T09:57:48.516Z,656.00
2023-04-26T09:58:48.710Z,665.00
2023-04-26T09:59:48.690Z,667.00
2023-04-26T10:00:48.600Z,692.00
2023-04-26T10:01:49.452Z,702.00
2023-04-26T10:02:48.706Z,689.00
2023-04-26T10:03:48.735Z,699.00
2023-04-26T10:04:48.771Z,712.00
2023-04-26T10:05:48.778Z,733.00
2023-04-26T10:06:48.668Z,745.00
2023-04-26T10:07:48.702Z,743.00
2023-04-26T10:08:48.792Z,728.00
2023-04-26T10:09:49.868Z,727.00
2023-04-26T10:10:48.776Z,742.00
2023-04-26T10:11:48.780Z,725.00
2023-04-26T10:12:48.829Z,718.00
2023-04-26T10:13:48.854Z,709.00
2023-04-26T10:14:48.995Z,710.00
2023-04-26T10:15:48.786Z,721.00
2023-04-26T10:16:48.800Z,744.00
2023-04-26T10:17:50.704Z,755.00
2023-04-26T10:18:48.605Z,746.00
2023-04-26T10:19:48.619Z,723.00
2023-04-26T10:20:48.557Z,701.00
2023-04-26T10:21:48.491Z,656.00
2023-04-26T10:22:48.434Z,625.00
2023-04-26T10:23:48.488Z,604.00
2023-04-26T10:24:48.351Z,587.00
2023-04-26T10:25:48.474Z,587.00
2023-04-26T10:26:48.278Z,571.00
2023-04-26T10:27:48.206Z,553.00
2023-04-26T10:28:48.223Z,541.00
2023-04-26T10:29:48.715Z,523.00
2023-04-26T10:30:48.099Z,521.00
2023-04-26T10:31:48.100Z,507.00
2023-04-26T10:32:48.054Z,500.00
2023-04-26T10:33:47.983Z,500.00
2023-04-26T10:34:47.943Z,527.00
2023-04-26T10:35:47.910Z,519.00
2023-04-26T10:36:47.883Z,500.00
2023-04-26T10:37:47.847Z,494.00
2023-04-26T10:38:47.827Z,516.00
2023-04-26T10:39:47.736Z,522.00
2023-04-26T10:40:47.687Z,545.00
2023-04-26T10:41:47.661Z,566.00
2023-04-26T10:42:47.616Z,595.00
2023-04-26T10:43:47.588Z,615.00
2023-04-26T10:44:47.622Z,639.00
2023-04-26T10:45:47.527Z,636.00
2023-04-26T10:46:47.437Z,637.00
2023-04-26T10:47:47.483Z,639.00
2023-04-26T10:48:47.388Z,644.00
2023-04-26T10:49:47.363Z,658.00
2023-04-26T10:50:47.255Z,683.00
2023-04-26T10:51:47.307Z,697.00
2023-04-26T10:52:47.155Z,738.00
2023-04-26T10:53:47.120Z,751.00
2023-04-26T10:54:47.079Z,757.00
2023-04-26T10:55:47.043Z,758.00
2023-04-26T10:56:47.057Z,767.00
2023-04-26T10:57:47.124Z,802.00
2023-04-26T10:58:47.096Z,807.00
2023-04-26T10:59:54.329Z,823.00
2023-04-26T11:00:48.210Z,824.00
2023-04-26T11:01:47.093Z,819.00
2023-04-26T11:02:47.010Z,830.00
2023-04-26T11:03:47.054Z,858.00
2023-04-26T11:04:47.752Z,1029.00
2023-04-26T11:05:46.860Z,1214.00
2023-04-26T11:06:46.800Z,1297.00
2023-04-26T11:07:46.808Z,1319.00
2023-04-26T11:08:46.774Z,1274.00
2023-04-26T11:09:46.669Z,1305.00
2023-04-26T11:10:46.672Z,1324.00
2023-04-26T11:11:46.693Z,1326.00
2023-04-26T11:12:46.694Z,1341.00
2023-04-26T11:13:46.936Z,1352.00
2023-04-26T11:14:46.742Z,1376.00
2023-04-26T11:15:46.795Z,1371.00
2023-04-26T11:16:47.210Z,1336.00
2023-04-26T11:17:46.853Z,1337.00
2023-04-26T11:18:46.861Z,1332.00
2023-04-26T11:19:46.819Z,1343.00
2023-04-26T11:20:46.849Z,1361.00
2023-04-26T11:21:46.871Z,1379.00
2023-04-26T11:22:46.903Z,1384.00
2023-04-26T11:23:47.166Z,1386.00
2023-04-26T11:24:46.976Z,1387.00
2023-04-26T11:25:46.934Z,1373.00
2023-04-26T11:26:47.143Z,1395.00
2023-04-26T11:27:46.999Z,1411.00
2023-04-26T11:28:47.028Z,1407.00
2023-04-26T11:29:47.124Z,1372.00
2023-04-26T11:30:47.056Z,1364.00
2023-04-26T11:31:47.105Z,1372.00
2023-04-26T11:32:47.119Z,1343.00
2023-04-26T11:33:49.849Z,1341.00
2023-04-26T11:34:47.146Z,1341.00
2023-04-26T11:35:47.061Z,1343.00
2023-04-26T11:36:47.008Z,1349.00
2023-04-26T11:37:46.975Z,1352.00
2023-04-26T11:38:46.952Z,1354.00
2023-04-26T11:39:46.923Z,1377.00
2023-04-26T11:40:46.892Z,1334.00
2023-04-26T11:41:46.828Z,1349.00
2023-04-26T11:42:46.787Z,1363.00
2023-04-26T11:43:46.846Z,1363.00
2023-04-26T11:44:47.741Z,1350.00
2023-04-26T11:45:46.923Z,1358.00
2023-04-26T11:46:46.917Z,1340.00
2023-04-26T11:47:46.971Z,1321.00
2023-04-26T11:48:46.931Z,1342.00
2023-04-26T11:49:46.987Z,1332.00
2023-04-26T11:50:47.001Z,1326.00
2023-04-26T11:51:47.017Z,1293.00
2023-04-26T11:52:47.045Z,1307.00
2023-04-26T11:53:47.073Z,1286.00
2023-04-26T11:54:47.146Z,1306.00
2023-04-26T11:55:47.122Z,1280.00
2023-04-26T11:56:47.181Z,1249.00
2023-04-26T11:57:47.192Z,1250.00
2023-04-26T11:58:47.224Z,1291.00
2023-04-26T11:59:47.255Z,1318.00
2023-04-26T12:00:47.313Z,1332.00
2023-04-26T12:01:47.390Z,1302.00
2023-04-26T12:02:47.601Z,1307.00
2023-04-26T12:03:47.549Z,1267.00
2023-04-26T12:04:47.514Z,1274.00
2023-04-26T12:05:47.457Z,1279.00
2023-04-26T12:06:47.509Z,1310.00
2023-04-26T12:07:47.509Z,1304.00
2023-04-26T12:08:47.473Z,1304.00
2023-04-26T12:09:47.434Z,1305.00
2023-04-26T12:10:47.400Z,1305.00
2023-04-26T12:11:47.366Z,1270.00
2023-04-26T12:12:47.333Z,1295.00
2023-04-26T12:13:47.342Z,1297.00
2023-04-26T12:14:47.251Z,1291.00
2023-04-26T12:15:47.221Z,1290.00
2023-04-26T12:16:47.175Z,1289.00
2023-04-26T12:17:47.195Z,1264.00
2023-04-26T12:18:47.073Z,1249.00
2023-04-26T12:19:47.056Z,1250.00
2023-04-26T12:20:47.007Z,1252.00
2023-04-26T12:21:47.004Z,1255.00